Time;durP1;ratioP1;P1;durP2;ratioP2;P2;SDS_P1;SDS_P2;PMS_P1;PMS_P2;Temp;Humidity;BMP_temperature;BMP_pressure;BME280_temperature;BME280_humidity;BME280_pressure;Samples;Min_cycle;Max_cycle;Signal;HPM_P1;HPM_P2
2023/09/25 00:02:18;;;;;;;5.55;1.05;;;16.80;99.90;;;;;;5033431;28;20030;-87
2023/09/25 00:04:43;;;;;;;6.95;0.80;;;16.80;99.90;;;;;;5033201;28;20049;-86
2023/09/25 00:07:09;;;;;;;3.33;0.82;;;16.80;99.90;;;;;;5033216;28;20100;-83
2023/09/25 00:09:35;;;;;;;2.47;0.70;;;16.90;99.90;;;;;;5032877;28;20076;-85
2023/09/25 00:12:00;;;;;;;4.13;0.68;;;16.90;99.90;;;;;;5032392;28;20080;-85
2023/09/25 00:14:26;;;;;;;8.88;0.65;;;16.90;99.90;;;;;;5031768;28;20083;-84
2023/09/25 00:16:52;;;;;;;3.67;0.60;;;16.90;99.90;;;;;;5032615;28;20120;-84
2023/09/25 00:19:17;;;;;;;4.07;0.60;;;17.00;99.90;;;;;;5031581;28;20407;-87
2023/09/25 00:21:43;;;;;;;5.20;0.93;;;17.00;99.90;;;;;;5032464;28;20407;-86
2023/09/25 00:24:08;;;;;;;3.05;0.77;;;17.00;99.90;;;;;;5033391;28;20025;-86
2023/09/25 00:26:34;;;;;;;5.97;0.50;;;17.00;99.90;;;;;;5033142;28;20018;-86
2023/09/25 00:29:00;;;;;;;3.67;0.60;;;17.00;99.90;;;;;;5033392;28;20025;-88
2023/09/25 00:31:25;;;;;;;6.50;0.68;;;17.10;99.90;;;;;;5032325;28;20494;-86
2023/09/25 00:33:52;;;;;;;3.55;0.63;;;17.10;99.90;;;;;;5033783;28;20029;-86
2023/09/25 00:36:17;;;;;;;3.22;0.80;;;17.10;99.90;;;;;;5033301;28;20018;-87
2023/09/25 00:38:43;;;;;;;7.03;0.93;;;17.10;99.90;;;;;;5032846;28;20040;-87
2023/09/25 00:41:09;;;;;;;6.40;0.70;;;17.00;99.90;;;;;;5032828;28;20026;-85
2023/09/25 00:43:34;;;;;;;3.10;0.60;;;17.00;99.90;;;;;;5032476;28;20108;-86
2023/09/25 00:46:00;;;;;;;8.82;0.98;;;17.00;99.90;;;;;;5032525;28;20026;-87
2023/09/25 00:48:28;;;;;;;4.60;0.65;;;17.00;99.90;;;;;;5032697;28;20483;-83
2023/09/25 00:50:56;;;;;;;4.72;0.80;;;17.00;99.90;;;;;;5030914;28;20037;-86
2023/09/25 00:53:23;;;;;;;2.60;0.93;;;17.00;99.90;;;;;;5031953;28;20127;-85
2023/09/25 00:55:49;;;;;;;5.35;0.60;;;17.00;99.90;;;;;;5030545;28;20567;-86
2023/09/25 00:58:15;;;;;;;6.72;1.05;;;16.90;99.90;;;;;;5031445;28;20522;-86
2023/09/25 01:00:42;;;;;;;5.22;0.85;;;16.90;99.90;;;;;;5031239;28;20120;-85
2023/09/25 01:03:08;;;;;;;3.53;0.60;;;16.90;99.90;;;;;;5032691;28;20025;-84
2023/09/25 01:05:37;;;;;;;5.53;0.80;;;16.90;99.90;;;;;;5030958;28;20033;-87
2023/09/25 01:08:03;;;;;;;9.30;1.00;;;17.00;99.90;;;;;;5031089;28;20441;-85
2023/09/25 01:10:29;;;;;;;6.60;0.80;;;16.90;99.90;;;;;;5032677;28;20025;-87
2023/09/25 01:12:56;;;;;;;2.97;1.00;;;16.90;99.90;;;;;;5032490;28;20025;-87
2023/09/25 01:15:22;;;;;;;5.85;0.60;;;16.90;99.90;;;;;;5032071;28;20029;-87
2023/09/25 01:17:48;;;;;;;6.15;0.95;;;16.90;99.90;;;;;;5032304;28;20481;-85
2023/09/25 01:20:17;;;;;;;8.85;1.25;;;16.90;99.90;;;;;;5032013;28;20045;-86
2023/09/25 01:22:48;;;;;;;6.32;0.77;;;17.00;99.90;;;;;;5031247;28;20036;-84
2023/09/25 01:25:15;;;;;;;5.30;1.15;;;17.10;99.90;;;;;;5031449;28;20034;-85
2023/09/25 01:27:42;;;;;;;2.03;0.60;;;17.10;99.90;;;;;;5031413;28;20564;-85
2023/09/25 01:30:09;;;;;;;5.05;0.98;;;17.10;99.90;;;;;;5031833;28;20100;-85
2023/09/25 01:32:40;;;;;;;5.57;1.38;;;17.20;99.90;;;;;;5031738;28;20029;-85
2023/09/25 01:35:18;;;;;;;6.30;0.88;;;17.20;99.90;;;;;;5030498;28;20140;-84
2023/09/25 01:37:44;;;;;;;5.03;1.00;;;17.20;99.90;;;;;;5030471;28;20044;-87
2023/09/25 01:40:15;;;;;;;4.55;0.80;;;17.20;99.90;;;;;;5031427;28;20033;-85
2023/09/25 01:42:41;;;;;;;10.93;1.05;;;17.20;99.90;;;;;;5031463;28;20221;-83
2023/09/25 01:45:09;;;;;;;4.07;0.88;;;17.30;99.90;;;;;;5031537;28;20502;-86
2023/09/25 01:47:35;;;;;;;5.18;0.85;;;17.30;99.90;;;;;;5030355;28;20017;-87
2023/09/25 01:50:01;;;;;;;5.47;0.95;;;17.20;99.90;;;;;;5030576;28;20040;-84
2023/09/25 01:52:29;;;;;;;5.80;0.60;;;17.20;99.90;;;;;;5030949;28;20025;-87
2023/09/25 01:54:55;;;;;;;6.43;1.20;;;17.10;99.90;;;;;;5031089;28;20403;-84
2023/09/25 01:57:21;;;;;;;4.32;0.70;;;17.00;99.90;;;;;;5030293;28;20021;-86
2023/09/25 01:59:47;;;;;;;5.55;0.80;;;16.90;99.90;;;;;;5031211;28;20117;-85
2023/09/25 02:02:13;;;;;;;3.72;0.47;;;16.70;99.90;;;;;;5030139;28;20025;-85
2023/09/25 02:04:39;;;;;;;8.27;0.93;;;16.70;99.90;;;;;;5031066;28;20099;-85
2023/09/25 02:07:04;;;;;;;4.18;1.00;;;16.60;99.90;;;;;;5029430;28;20070;-85
2023/09/25 02:09:30;;;;;;;4.00;0.70;;;16.50;99.90;;;;;;5030000;28;20060;-85
2023/09/25 02:11:55;;;;;;;4.78;0.80;;;16.40;99.90;;;;;;5030703;28;20056;-85
2023/09/25 02:14:21;;;;;;;3.53;0.60;;;16.40;99.90;;;;;;5042074;28;20029;-88
2023/09/25 02:16:47;;;;;;;6.05;0.73;;;16.30;99.90;;;;;;5034444;28;20060;-85
2023/09/25 02:19:13;;;;;;;1.73;0.50;;;16.20;99.90;;;;;;5050821;28;20154;-85
2023/09/25 02:21:39;;;;;;;4.95;0.63;;;16.20;99.90;;;;;;5049657;28;20123;-86
2023/09/25 02:24:05;;;;;;;4.25;0.60;;;16.10;99.90;;;;;;5050795;28;20025;-87
2023/09/25 02:26:31;;;;;;;5.82;0.57;;;16.10;99.90;;;;;;5050081;28;20080;-85
2023/09/25 02:28:56;;;;;;;6.32;0.60;;;16.10;99.90;;;;;;5049008;28;20083;-87
2023/09/25 02:31:22;;;;;;;3.67;1.02;;;16.00;99.90;;;;;;5048872;28;20033;-87
2023/09/25 02:33:48;;;;;;;3.75;1.02;;;16.00;99.90;;;;;;5048546;28;20044;-86
2023/09/25 02:36:15;;;;;;;4.25;0.82;;;15.90;99.90;;;;;;5047238;28;20099;-87
2023/09/25 02:38:40;;;;;;;4.10;1.00;;;15.90;99.90;;;;;;5049195;28;20406;-88
2023/09/25 02:41:06;;;;;;;3.53;0.70;;;15.80;99.90;;;;;;5046784;28;20033;-86
2023/09/25 02:43:31;;;;;;;3.42;0.70;;;15.80;99.90;;;;;;5047645;28;20013;-85
2023/09/25 02:45:57;;;;;;;4.97;1.00;;;15.80;99.90;;;;;;5046411;28;20029;-86
2023/09/25 02:48:23;;;;;;;8.10;1.92;;;15.70;99.90;;;;;;5048089;28;20025;-87
2023/09/25 02:50:49;;;;;;;6.50;0.90;;;15.70;99.90;;;;;;5048359;28;20029;-86
2023/09/25 02:53:15;;;;;;;9.40;1.63;;;15.70;99.90;;;;;;5048359;28;20485;-88
2023/09/25 02:55:42;;;;;;;5.78;1.00;;;15.80;99.90;;;;;;5048206;28;20025;-88
2023/09/25 02:58:08;;;;;;;5.13;2.08;;;15.80;99.90;;;;;;5049970;28;20096;-86
2023/09/25 03:00:34;;;;;;;9.75;1.02;;;15.90;99.90;;;;;;5049529;28;20025;-88
2023/09/25 03:02:59;;;;;;;3.67;1.02;;;16.00;99.90;;;;;;5048365;28;20481;-87
2023/09/25 03:05:25;;;;;;;7.72;1.23;;;16.20;99.90;;;;;;5048724;28;20412;-87
2023/09/25 03:07:50;;;;;;;8.43;1.27;;;16.60;99.90;;;;;;5049523;28;20033;-87
2023/09/25 03:10:16;;;;;;;7.72;1.10;;;16.70;99.90;;;;;;5048488;28;20440;-87
2023/09/25 03:12:42;;;;;;;11.82;1.00;;;16.90;99.90;;;;;;5048451;28;20449;-87
2023/09/25 03:15:08;;;;;;;5.75;1.60;;;17.00;99.90;;;;;;5048400;28;20127;-86
2023/09/25 03:17:35;;;;;;;3.63;0.93;;;17.00;99.90;;;;;;5047877;28;20045;-86
2023/09/25 03:20:20;;;;;;;5.68;1.05;;;16.90;99.90;;;;;;5048796;28;20033;-87
2023/09/25 03:22:46;;;;;;;8.10;2.05;;;16.90;99.90;;;;;;5049237;28;20074;-87
2023/09/25 03:25:13;;;;;;;5.55;1.20;;;16.80;99.90;;;;;;5049382;28;20025;-85
2023/09/25 03:27:39;;;;;;;5.32;1.45;;;16.60;99.90;;;;;;5048482;28;20055;-85
2023/09/25 03:30:05;;;;;;;4.57;1.05;;;16.60;99.90;;;;;;5052881;28;20033;-87
2023/09/25 03:32:31;;;;;;;6.28;1.10;;;16.50;99.90;;;;;;5052646;28;20478;-84
2023/09/25 03:34:57;;;;;;;8.70;2.03;;;16.60;99.90;;;;;;5053094;28;20104;-87
2023/09/25 03:37:23;;;;;;;10.90;1.48;;;16.80;99.90;;;;;;5052149;28;20120;-87
2023/09/25 03:39:49;;;;;;;11.73;1.45;;;17.10;99.90;;;;;;5052955;28;20505;-85
2023/09/25 03:42:14;;;;;;;6.63;1.17;;;17.40;99.90;;;;;;5052416;28;20040;-87
2023/09/25 03:44:40;;;;;;;12.90;1.70;;;17.60;99.90;;;;;;5051020;28;20032;-87
2023/09/25 03:47:05;;;;;;;8.15;1.00;;;17.70;99.90;;;;;;5052213;28;20426;-85
2023/09/25 03:49:31;;;;;;;9.23;1.45;;;17.70;99.90;;;;;;5051433;28;20087;-87
2023/09/25 03:51:57;;;;;;;15.80;2.00;;;17.70;99.90;;;;;;5050576;28;20025;-86
2023/09/25 03:54:22;;;;;;;7.70;1.52;;;17.80;99.90;;;;;;5052425;28;20512;-88
2023/09/25 03:56:48;;;;;;;9.57;1.38;;;17.80;99.90;;;;;;5050837;28;20025;-85
2023/09/25 03:59:14;;;;;;;10.35;2.30;;;17.90;99.90;;;;;;5050669;28;20067;-87
2023/09/25 04:01:39;;;;;;;9.13;1.13;;;17.90;99.90;;;;;;5052180;28;20083;-87
2023/09/25 04:04:06;;;;;;;11.23;1.65;;;18.10;99.90;;;;;;5050875;28;20029;-87
2023/09/25 04:06:32;;;;;;;5.63;0.90;;;18.00;99.90;;;;;;5051954;28;20025;-86
2023/09/25 04:08:58;;;;;;;10.32;0.88;;;18.10;99.90;;;;;;5051897;28;20029;-87
2023/09/25 04:11:24;;;;;;;8.95;1.40;;;18.10;99.90;;;;;;5050275;28;20036;-87
2023/09/25 04:13:50;;;;;;;10.27;1.73;;;18.10;99.90;;;;;;5051765;28;20493;-85
2023/09/25 04:16:16;;;;;;;10.85;2.05;;;18.20;99.90;;;;;;5050214;28;20414;-84
2023/09/25 04:18:45;;;;;;;16.75;1.52;;;18.20;99.90;;;;;;5051836;28;20055;-83
2023/09/25 04:21:14;;;;;;;6.85;1.20;;;18.30;99.90;;;;;;5051750;28;20079;-85
2023/09/25 04:23:43;;;;;;;10.35;1.45;;;18.30;99.90;;;;;;5052254;28;20108;-85
2023/09/25 04:26:11;;;;;;;5.53;0.98;;;18.40;99.90;;;;;;5050653;28;20082;-86
2023/09/25 04:28:37;;;;;;;11.75;1.42;;;18.50;99.90;;;;;;5050451;28;20029;-89
2023/09/25 04:31:07;;;;;;;6.32;1.13;;;18.60;99.90;;;;;;5050756;28;20079;-86
2023/09/25 04:33:33;;;;;;;9.38;1.63;;;18.70;99.90;;;;;;5051552;28;20112;-88
2023/09/25 04:36:01;;;;;;;7.32;1.67;;;18.70;99.90;;;;;;5050259;28;20052;-85
2023/09/25 04:38:27;;;;;;;9.93;1.17;;;18.70;99.90;;;;;;5051465;28;20021;-85
2023/09/25 04:40:54;;;;;;;9.73;1.85;;;18.60;99.90;;;;;;5049330;28;20486;-86
2023/09/25 04:43:21;;;;;;;10.02;1.73;;;18.70;99.90;;;;;;5051285;28;20035;-88
2023/09/25 04:45:47;;;;;;;14.02;1.80;;;18.70;99.90;;;;;;5050906;28;20117;-88
2023/09/25 04:48:25;;;;;;;8.05;1.58;;;18.80;99.90;;;;;;5050188;28;20033;-87
2023/09/25 04:50:51;;;;;;;6.10;1.20;;;18.80;99.90;;;;;;5051607;28;20497;-86
2023/09/25 04:53:19;;;;;;;7.75;1.23;;;18.80;99.90;;;;;;5049676;28;20051;-86
2023/09/25 04:55:46;;;;;;;9.85;1.88;;;18.70;99.90;;;;;;5050501;28;20033;-86
2023/09/25 04:58:12;;;;;;;8.32;1.35;;;18.80;99.90;;;;;;5048411;28;20431;-86
2023/09/25 05:00:38;;;;;;;5.30;1.23;;;18.90;99.90;;;;;;5049067;28;20574;-85
2023/09/25 05:03:04;;;;;;;11.07;2.00;;;18.90;99.90;;;;;;5049898;28;20028;-85
2023/09/25 05:05:31;;;;;;;11.38;1.27;;;19.00;99.90;;;;;;5051429;28;20079;-87
2023/09/25 05:07:57;;;;;;;7.97;1.65;;;19.00;99.90;;;;;;5050786;28;20036;-85
2023/09/25 05:10:25;;;;;;;8.27;1.42;;;19.10;99.90;;;;;;5050478;28;20078;-87
2023/09/25 05:12:52;;;;;;;8.48;1.23;;;19.20;99.90;;;;;;5049386;28;20029;-86
2023/09/25 05:15:18;;;;;;;9.68;1.30;;;19.10;99.90;;;;;;5050478;28;20017;-87
2023/09/25 05:17:44;;;;;;;11.05;1.30;;;19.20;99.90;;;;;;5049297;28;20075;-85
2023/09/25 05:20:15;;;;;;;8.15;1.70;;;19.30;99.90;;;;;;5048929;28;20045;-84
2023/09/25 05:22:52;;;;;;;9.10;2.33;;;19.40;99.90;;;;;;5049983;28;20086;-87
2023/09/25 05:25:19;;;;;;;14.68;2.03;;;19.30;99.90;;;;;;5050368;28;20021;-88
2023/09/25 05:27:47;;;;;;;6.55;1.35;;;19.40;99.90;;;;;;5048880;28;20025;-85
2023/09/25 05:30:13;;;;;;;8.48;1.55;;;19.40;99.90;;;;;;5049995;28;20017;-86
2023/09/25 05:32:41;;;;;;;7.22;1.95;;;19.40;99.90;;;;;;5049159;28;20036;-87
2023/09/25 05:35:08;;;;;;;9.23;1.23;;;19.40;99.90;;;;;;5048818;28;20043;-87
2023/09/25 05:37:34;;;;;;;8.20;1.60;;;19.40;99.90;;;;;;5048953;28;20029;-85
2023/09/25 05:40:10;;;;;;;8.90;1.20;;;19.40;99.90;;;;;;5049808;28;20102;-87
2023/09/25 05:42:36;;;;;;;11.13;1.42;;;19.50;99.90;;;;;;5050424;28;20025;-84
2023/09/25 05:45:02;;;;;;;9.35;1.25;;;19.60;99.90;;;;;;5050015;28;20075;-85
2023/09/25 05:47:28;;;;;;;9.02;0.98;;;19.70;99.90;;;;;;5049963;28;20363;-86
2023/09/25 05:49:53;;;;;;;7.70;1.83;;;19.90;99.90;;;;;;5049638;28;20520;-84
2023/09/25 05:52:19;;;;;;;7.45;1.30;;;19.90;99.90;;;;;;5049747;28;20025;-85
2023/09/25 05:54:45;;;;;;;7.78;1.27;;;20.10;99.90;;;;;;5050036;28;20032;-85
2023/09/25 05:57:11;;;;;;;8.77;1.13;;;20.20;99.90;;;;;;5049756;28;20033;-84
2023/09/25 05:59:36;;;;;;;4.82;1.40;;;20.30;99.90;;;;;;5048233;28;20029;-85
2023/09/25 06:02:02;;;;;;;11.73;1.35;;;20.40;99.90;;;;;;5048168;28;20561;-84
2023/09/25 06:04:28;;;;;;;7.18;1.25;;;20.50;99.90;;;;;;5049302;28;20076;-83
2023/09/25 06:06:55;;;;;;;11.23;1.88;;;20.60;99.90;;;;;;5049468;28;20025;-84
2023/09/25 06:09:21;;;;;;;10.50;2.22;;;20.60;99.90;;;;;;5048998;28;20555;-84
2023/09/25 06:11:48;;;;;;;9.40;1.33;;;20.80;99.90;;;;;;5047511;28;20511;-85
2023/09/25 06:14:14;;;;;;;7.38;1.50;;;20.80;99.90;;;;;;5047711;28;20490;-84
2023/09/25 06:16:39;;;;;;;9.07;1.30;;;20.90;99.90;;;;;;5047459;28;20060;-83
2023/09/25 06:19:06;;;;;;;9.52;1.35;;;21.00;99.90;;;;;;5049023;28;20045;-85
2023/09/25 06:21:33;;;;;;;8.38;1.50;;;21.10;99.90;;;;;;5048328;28;20057;-85
2023/09/25 06:23:59;;;;;;;14.75;1.60;;;21.20;99.90;;;;;;5048867;28;20434;-84
2023/09/25 06:26:27;;;;;;;23.15;2.08;;;21.50;99.90;;;;;;5048583;28;20031;-85
2023/09/25 06:28:54;;;;;;;5.90;1.65;;;21.80;99.90;;;;;;5048957;28;20056;-82
2023/09/25 06:31:23;;;;;;;13.80;2.22;;;22.20;99.90;;;;;;5048704;28;20104;-83
2023/09/25 06:33:49;;;;;;;10.00;1.58;;;22.60;99.90;;;;;;5047391;28;20027;-82
2023/09/25 06:36:15;;;;;;;8.38;1.60;;;22.80;99.90;;;;;;5047698;28;20131;-82
2023/09/25 06:38:41;;;;;;;13.27;1.58;;;22.80;99.90;;;;;;5048528;28;20472;-83
2023/09/25 06:41:12;;;;;;;14.35;2.25;;;22.80;99.90;;;;;;5047539;28;20025;-84
2023/09/25 06:43:39;;;;;;;8.43;1.48;;;22.90;99.90;;;;;;5048732;28;20031;-83
2023/09/25 06:46:04;;;;;;;14.68;1.80;;;23.10;99.90;;;;;;5047190;28;20444;-84
2023/09/25 06:48:32;;;;;;;10.00;1.73;;;23.30;99.90;;;;;;5047580;28;20021;-83
2023/09/25 06:50:58;;;;;;;7.55;2.40;;;23.50;99.90;;;;;;5048606;28;20083;-84
2023/09/25 06:53:23;;;;;;;13.35;1.95;;;23.80;99.90;;;;;;5047260;28;20029;-83
2023/09/25 06:55:49;;;;;;;8.55;2.00;;;24.20;99.90;;;;;;5047300;28;20028;-80
2023/09/25 06:58:15;;;;;;;8.63;2.58;;;24.50;99.90;;;;;;5048482;28;20028;-82
2023/09/25 07:00:43;;;;;;;10.60;1.58;;;24.50;99.90;;;;;;5048469;28;20033;-80
2023/09/25 07:03:09;;;;;;;11.32;1.70;;;24.60;99.90;;;;;;5049235;28;20028;-81
2023/09/25 07:05:34;;;;;;;14.63;2.00;;;24.60;99.90;;;;;;5052725;28;20029;-81
2023/09/25 07:08:00;;;;;;;20.50;1.30;;;24.80;99.90;;;;;;5051217;28;20021;-82
2023/09/25 07:10:26;;;;;;;13.55;2.67;;;24.90;98.70;;;;;;5051389;28;20482;-83
2023/09/25 07:12:52;;;;;;;5.47;1.75;;;24.80;98.30;;;;;;5051597;28;20033;-83
2023/09/25 07:15:19;;;;;;;13.30;1.90;;;25.00;98.60;;;;;;5052532;28;20036;-84
2023/09/25 07:17:47;;;;;;;8.25;1.88;;;25.00;97.80;;;;;;5052446;28;20036;-83
2023/09/25 07:20:12;;;;;;;9.90;1.58;;;25.00;97.10;;;;;;5052183;28;20041;-83
2023/09/25 07:22:38;;;;;;;6.40;1.83;;;25.00;97.70;;;;;;5050632;28;20566;-84
2023/09/25 07:25:04;;;;;;;7.22;1.58;;;25.20;95.80;;;;;;5052277;28;20463;-84
2023/09/25 07:27:32;;;;;;;13.25;1.45;;;25.20;96.10;;;;;;5052203;28;20119;-84
2023/09/25 07:29:59;;;;;;;10.02;2.47;;;25.70;93.70;;;;;;5050841;28;20037;-82
2023/09/25 07:32:24;;;;;;;11.23;2.10;;;26.00;92.10;;;;;;5052259;28;20028;-83
2023/09/25 07:34:52;;;;;;;8.00;1.50;;;26.00;91.30;;;;;;5052345;28;20415;-83
2023/09/25 07:37:17;;;;;;;9.20;1.83;;;26.00;91.80;;;;;;5050914;28;20172;-84
2023/09/25 07:39:43;;;;;;;9.55;1.83;;;26.10;91.60;;;;;;5052180;28;20600;-82
2023/09/25 07:42:13;;;;;;;9.57;2.25;;;26.20;90.20;;;;;;5052292;28;20025;-83
2023/09/25 07:44:38;;;;;;;10.43;1.80;;;25.90;90.20;;;;;;5051692;28;20505;-83
2023/09/25 07:47:10;;;;;;;5.80;1.40;;;25.70;91.80;;;;;;5050839;28;20146;-80
2023/09/25 07:49:44;;;;;;;5.05;1.60;;;25.50;93.20;;;;;;5050701;28;20029;-84
2023/09/25 07:52:19;;;;;;;11.57;2.20;;;25.20;95.30;;;;;;5050679;28;20037;-83
2023/09/25 07:54:48;;;;;;;7.57;2.08;;;25.20;95.40;;;;;;5052075;28;20028;-80
2023/09/25 07:57:15;;;;;;;14.65;1.60;;;25.30;95.50;;;;;;5050829;28;20036;-80
2023/09/25 07:59:44;;;;;;;12.45;1.75;;;25.60;95.40;;;;;;5050462;28;20041;-80
2023/09/25 08:02:19;;;;;;;5.32;1.27;;;25.60;94.10;;;;;;5050803;28;20033;-80
2023/09/25 08:04:46;;;;;;;11.52;2.80;;;25.60;95.10;;;;;;5052102;28;20084;-80
2023/09/25 08:07:14;;;;;;;13.57;1.77;;;25.60;94.90;;;;;;5050260;28;20040;-80
2023/09/25 08:09:41;;;;;;;9.00;2.40;;;25.50;93.70;;;;;;5050262;28;20124;-84
2023/09/25 08:12:06;;;;;;;8.45;1.40;;;25.70;94.40;;;;;;5050628;28;20104;-84
2023/09/25 08:14:32;;;;;;;12.40;1.88;;;25.90;94.90;;;;;;5050289;28;20131;-84
2023/09/25 08:16:59;;;;;;;9.13;2.08;;;26.20;91.00;;;;;;5049928;28;20048;-83
2023/09/25 08:19:24;;;;;;;6.93;1.65;;;26.20;91.10;;;;;;5050240;28;20118;-84
2023/09/25 08:21:51;;;;;;;13.00;1.80;;;26.30;90.90;;;;;;5050251;28;20024;-83
2023/09/25 08:24:17;;;;;;;17.85;1.88;;;27.00;90.10;;;;;;5051221;28;20036;-84
2023/09/25 08:26:46;;;;;;;8.70;1.75;;;27.50;87.60;;;;;;5051601;28;20100;-84
2023/09/25 08:29:16;;;;;;;4.40;1.42;;;28.00;81.10;;;;;;5051115;28;20045;-83
2023/09/25 08:31:45;;;;;;;10.15;1.80;;;28.50;76.70;;;;;;5050282;28;20115;-84
2023/09/25 08:34:11;;;;;;;8.15;1.90;;;28.70;73.30;;;;;;5051208;28;20595;-81
2023/09/25 08:36:38;;;;;;;11.18;2.17;;;28.80;73.00;;;;;;5049540;28;20025;-82
2023/09/25 08:39:04;;;;;;;6.13;1.75;;;28.70;71.60;;;;;;5051097;28;20047;-80
2023/09/25 08:41:31;;;;;;;4.50;1.35;;;28.90;69.90;;;;;;5051147;28;20049;-81
2023/09/25 08:43:57;;;;;;;6.28;1.20;;;28.90;71.30;;;;;;5049796;28;20029;-80
2023/09/25 08:46:25;;;;;;;8.10;1.50;;;29.10;72.00;;;;;;5049757;28;20557;-81
2023/09/25 08:48:56;;;;;;;6.20;1.90;;;29.50;71.10;;;;;;5050933;28;20797;-83
2023/09/25 08:51:23;;;;;;;10.40;2.38;;;29.60;66.80;;;;;;5049875;28;20021;-81
2023/09/25 08:53:49;;;;;;;6.20;1.73;;;29.60;65.90;;;;;;5050644;28;20117;-83
2023/09/25 08:56:15;;;;;;;13.40;1.98;;;29.00;66.90;;;;;;5050536;28;20110;-83
2023/09/25 08:58:45;;;;;;;9.18;1.75;;;28.10;70.20;;;;;;5050882;28;20033;-84
2023/09/25 09:01:11;;;;;;;5.10;2.03;;;27.20;75.10;;;;;;5050687;28;20029;-82
2023/09/25 09:03:37;;;;;;;7.30;2.42;;;26.70;79.90;;;;;;5050665;28;20036;-84
2023/09/25 09:06:04;;;;;;;6.10;1.75;;;26.40;84.50;;;;;;5050804;28;20104;-84
2023/09/25 09:08:30;;;;;;;10.40;1.55;;;26.10;88.40;;;;;;5050550;28;20032;-83
2023/09/25 09:10:55;;;;;;;10.70;2.03;;;25.90;90.10;;;;;;5049446;28;20029;-83
2023/09/25 09:13:22;;;;;;;10.57;2.20;;;25.70;91.30;;;;;;5050842;28;20025;-82
2023/09/25 09:15:49;;;;;;;9.75;1.60;;;25.70;92.40;;;;;;5050431;28;20052;-81
2023/09/25 09:18:25;;;;;;;11.75;2.22;;;25.80;91.60;;;;;;5050476;28;20025;-83
2023/09/25 09:20:52;;;;;;;5.93;1.98;;;26.40;91.30;;;;;;5048719;28;20409;-84
2023/09/25 09:23:18;;;;;;;6.95;1.77;;;27.10;86.60;;;;;;5050015;28;20030;-82
2023/09/25 09:25:45;;;;;;;9.00;2.35;;;27.90;82.20;;;;;;5050248;28;20032;-83
2023/09/25 09:28:11;;;;;;;6.20;1.90;;;28.40;75.10;;;;;;5050306;28;20109;-83
2023/09/25 09:30:37;;;;;;;7.25;1.75;;;28.60;72.70;;;;;;5048744;28;20123;-83
2023/09/25 09:33:04;;;;;;;4.88;1.67;;;29.00;72.80;;;;;;5050281;28;20077;-81
2023/09/25 09:35:30;;;;;;;7.15;1.95;;;29.30;69.50;;;;;;5048873;28;20037;-84
2023/09/25 09:37:57;;;;;;;11.55;1.75;;;29.00;68.70;;;;;;5048472;28;20375;-84
2023/09/25 09:40:25;;;;;;;8.02;2.47;;;28.60;69.70;;;;;;5049749;28;20037;-81
2023/09/25 09:42:52;;;;;;;7.20;1.65;;;28.30;71.10;;;;;;5048821;28;20115;-85
2023/09/25 09:45:18;;;;;;;7.55;1.88;;;28.50;71.60;;;;;;5049733;28;20036;-83
2023/09/25 09:47:46;;;;;;;8.23;1.25;;;28.40;72.30;;;;;;5048449;28;20531;-83
2023/09/25 09:50:12;;;;;;;7.45;1.92;;;28.20;74.30;;;;;;5048787;28;20390;-83
2023/09/25 09:52:39;;;;;;;12.73;3.15;;;27.90;73.90;;;;;;5049346;28;20021;-83
2023/09/25 09:55:07;;;;;;;10.65;2.97;;;27.60;75.90;;;;;;5048197;28;20108;-83
2023/09/25 09:57:33;;;;;;;9.60;2.25;;;27.40;77.90;;;;;;5048317;28;20124;-83
2023/09/25 09:59:59;;;;;;;9.45;1.73;;;27.30;82.10;;;;;;5047935;28;20033;-83
2023/09/25 10:02:31;;;;;;;12.32;2.47;;;27.50;78.00;;;;;;5049648;28;20445;-83
2023/09/25 10:04:57;;;;;;;4.60;1.55;;;28.00;79.70;;;;;;5048589;28;20041;-83
2023/09/25 10:07:23;;;;;;;10.32;2.78;;;28.30;76.60;;;;;;5049459;28;20029;-85
2023/09/25 10:09:57;;;;;;;5.30;1.60;;;28.70;74.70;;;;;;5049302;28;20041;-85
2023/09/25 10:12:52;;;;;;;7.75;1.90;;;29.20;72.90;;;;;;5048012;28;20032;-81
2023/09/25 10:15:22;;;;;;;13.55;2.03;;;29.60;68.20;;;;;;5049608;28;20032;-82
2023/09/25 10:17:48;;;;;;;7.15;1.80;;;29.50;67.30;;;;;;5048204;28;20032;-82
2023/09/25 10:20:37;;;;;;;10.68;2.60;;;29.40;66.80;;;;;;5047882;28;20041;-83
2023/09/25 10:23:07;;;;;;;8.90;2.92;;;29.20;69.60;;;;;;5049345;28;20513;-83
2023/09/25 10:25:47;;;;;;;11.15;1.92;;;28.60;73.00;;;;;;5048237;28;20076;-85
2023/09/25 10:28:27;;;;;;;3.88;1.90;;;28.00;74.80;;;;;;5048150;28;20046;-83
2023/09/25 10:30:57;;;;;;;10.52;2.33;;;27.50;78.80;;;;;;5047826;28;20029;-82
2023/09/25 10:33:22;;;;;;;10.88;2.55;;;27.10;82.40;;;;;;5047881;28;20116;-82
2023/09/25 10:35:50;;;;;;;8.93;2.65;;;27.10;86.00;;;;;;5047967;28;20529;-81
2023/09/25 10:38:25;;;;;;;10.18;2.17;;;26.90;85.20;;;;;;5048835;28;20478;-81
2023/09/25 10:40:54;;;;;;;14.13;2.78;;;26.50;87.40;;;;;;5047653;28;20512;-81
2023/09/25 10:43:24;;;;;;;5.68;1.83;;;26.50;92.50;;;;;;5049140;28;20491;-81
2023/09/25 10:45:52;;;;;;;10.55;2.55;;;26.60;92.60;;;;;;5049004;28;20043;-84
2023/09/25 10:48:18;;;;;;;7.78;1.65;;;26.50;92.00;;;;;;5049086;28;20025;-83
2023/09/25 10:50:44;;;;;;;8.35;2.00;;;26.40;92.10;;;;;;5048829;28;20039;-83
2023/09/25 10:53:10;;;;;;;9.05;2.47;;;26.30;92.60;;;;;;5048915;28;20064;-84
2023/09/25 10:55:37;;;;;;;5.10;1.80;;;26.40;92.90;;;;;;5048914;28;20039;-82
2023/09/25 10:58:04;;;;;;;7.80;2.50;;;26.20;92.20;;;;;;5048667;28;20029;-84
2023/09/25 11:00:32;;;;;;;9.15;2.20;;;26.00;94.30;;;;;;5047207;28;20568;-84
2023/09/25 11:03:02;;;;;;;12.18;2.70;;;26.00;95.80;;;;;;5047595;28;20021;-84
2023/09/25 11:05:32;;;;;;;9.98;2.50;;;26.20;96.00;;;;;;5047263;28;20025;-84
2023/09/25 11:07:58;;;;;;;11.52;2.85;;;26.30;96.40;;;;;;5048613;28;20534;-82
2023/09/25 11:10:29;;;;;;;12.77;2.15;;;26.30;94.60;;;;;;5047415;28;20029;-84
2023/09/25 11:12:57;;;;;;;9.80;2.75;;;26.40;93.00;;;;;;5048887;28;20441;-84
2023/09/25 11:15:25;;;;;;;13.93;3.35;;;26.30;93.50;;;;;;5048745;28;20025;-83
2023/09/25 11:17:51;;;;;;;11.63;2.28;;;26.30;93.40;;;;;;5047501;28;20048;-83
2023/09/25 11:20:22;;;;;;;10.48;2.47;;;26.40;95.00;;;;;;5047423;28;20086;-83
2023/09/25 11:22:49;;;;;;;7.15;2.60;;;26.40;94.00;;;;;;5048334;28;20561;-82
2023/09/25 11:25:17;;;;;;;8.00;2.25;;;26.40;94.20;;;;;;5048216;28;20056;-83
2023/09/25 11:27:53;;;;;;;10.00;2.05;;;26.50;94.60;;;;;;5048504;28;20021;-84
2023/09/25 11:30:19;;;;;;;9.18;2.10;;;26.50;93.40;;;;;;5047360;28;20028;-83
2023/09/25 11:32:45;;;;;;;10.35;1.73;;;26.50;93.10;;;;;;5048486;28;20036;-83
2023/09/25 11:35:12;;;;;;;9.77;2.13;;;26.40;94.70;;;;;;5048871;28;20025;-83
2023/09/25 11:38:01;;;;;;;7.25;1.85;;;26.40;94.20;;;;;;5048878;28;20025;-83
2023/09/25 11:40:29;;;;;;;10.50;2.00;;;26.30;92.40;;;;;;5048866;28;20037;-83
2023/09/25 11:42:56;;;;;;;11.60;2.28;;;26.40;93.40;;;;;;5047621;28;20379;-82
2023/09/25 11:45:22;;;;;;;7.78;2.28;;;26.30;93.90;;;;;;5048457;28;20025;-84
2023/09/25 11:47:48;;;;;;;6.68;1.92;;;26.40;93.50;;;;;;5048854;28;20060;-83
2023/09/25 11:50:16;;;;;;;8.63;2.22;;;26.50;94.70;;;;;;5051495;28;20029;-83
2023/09/25 11:52:43;;;;;;;13.40;2.17;;;26.50;94.50;;;;;;5052012;28;20497;-82
2023/09/25 11:55:12;;;;;;;14.13;2.40;;;26.50;94.20;;;;;;5050736;28;20029;-83
2023/09/25 11:57:41;;;;;;;6.40;1.60;;;26.70;94.80;;;;;;5051959;28;20088;-83
2023/09/25 12:00:11;;;;;;;13.23;3.28;;;26.80;93.60;;;;;;5052165;28;20064;-82
2023/09/25 12:02:37;;;;;;;14.57;2.40;;;26.80;93.60;;;;;;5051971;28;20056;-84
2023/09/25 12:05:06;;;;;;;9.25;2.65;;;26.80;93.40;;;;;;5051680;28;20502;-83
2023/09/25 12:07:36;;;;;;;11.38;1.83;;;26.80;91.90;;;;;;5051671;28;20064;-84
2023/09/25 12:10:05;;;;;;;20.92;2.80;;;26.80;92.30;;;;;;5050383;28;20424;-83
2023/09/25 12:12:41;;;;;;;17.27;2.97;;;26.70;93.00;;;;;;5051510;28;20366;-83
2023/09/25 12:15:08;;;;;;;11.10;2.42;;;26.60;93.20;;;;;;5051257;28;20040;-83
2023/09/25 12:17:37;;;;;;;12.07;2.40;;;26.50;94.70;;;;;;5049950;28;20045;-83
2023/09/25 12:20:06;;;;;;;5.45;1.50;;;26.50;92.80;;;;;;5051876;28;20091;-85
2023/09/25 12:22:32;;;;;;;10.82;2.72;;;26.50;93.50;;;;;;5051749;28;20498;-84
2023/09/25 12:24:58;;;;;;;7.45;2.08;;;26.40;92.20;;;;;;5050456;28;20523;-84
2023/09/25 12:27:23;;;;;;;8.73;1.85;;;26.50;92.90;;;;;;5049975;28;20021;-83
2023/09/25 12:29:50;;;;;;;9.40;2.05;;;26.50;92.50;;;;;;5051454;28;20029;-83
2023/09/25 12:32:15;;;;;;;7.57;1.98;;;26.50;92.20;;;;;;5051469;28;20060;-82
2023/09/25 12:34:41;;;;;;;12.52;2.85;;;26.50;90.40;;;;;;5051466;28;20033;-85
2023/09/25 12:37:07;;;;;;;8.25;2.10;;;26.50;91.30;;;;;;5051215;28;20363;-84
2023/09/25 12:39:36;;;;;;;10.65;2.63;;;26.60;91.80;;;;;;5051236;28;20130;-84
2023/09/25 12:42:02;;;;;;;9.18;1.73;;;26.60;90.70;;;;;;5051040;28;20029;-83
2023/09/25 12:44:27;;;;;;;7.63;1.70;;;26.70;91.80;;;;;;5049934;28;20068;-84